createdAt,value
2022-07-27T00:02:32.287Z,99.90
2022-07-27T00:07:34.039Z,99.90
2022-07-27T00:12:37.655Z,99.90
2022-07-27T00:17:39.427Z,99.90
2022-07-27T00:22:41.765Z,99.90
2022-07-27T00:27:43.592Z,99.90
2022-07-27T00:32:45.963Z,99.90
2022-07-27T00:37:47.702Z,99.90
2022-07-27T00:42:49.470Z,99.90
2022-07-27T00:47:54.911Z,99.90
2022-07-27T00:52:57.054Z,99.90
2022-07-27T00:57:59.862Z,99.90
2022-07-27T01:03:02.542Z,99.90
2022-07-27T01:08:12.709Z,99.90
2022-07-27T01:13:16.702Z,99.90
2022-07-27T01:18:30.389Z,99.90
2022-07-27T01:23:32.934Z,99.90
2022-07-27T01:28:34.696Z,99.90
2022-07-27T01:33:37.212Z,99.90
2022-07-27T01:38:38.961Z,99.90
2022-07-27T01:43:41.073Z,99.90
2022-07-27T01:48:43.006Z,99.90
2022-07-27T01:53:44.745Z,99.90
2022-07-27T01:58:46.510Z,99.90
2022-07-27T02:03:48.255Z,99.90
2022-07-27T02:08:49.967Z,99.90
2022-07-27T02:13:51.690Z,99.90
2022-07-27T02:18:53.438Z,99.90
2022-07-27T02:23:55.137Z,99.90
2022-07-27T02:28:56.922Z,99.90
2022-07-27T02:33:58.655Z,99.90
2022-07-27T02:39:00.397Z,99.90
2022-07-27T02:44:02.114Z,99.90
2022-07-27T02:49:03.911Z,99.90
2022-07-27T02:54:05.763Z,99.90
2022-07-27T02:59:07.529Z,99.90
2022-07-27T03:04:09.606Z,99.90
2022-07-27T03:09:12.194Z,99.90
2022-07-27T03:14:14.136Z,99.90
2022-07-27T03:19:17.112Z,99.90
2022-07-27T03:24:18.851Z,99.90
2022-07-27T03:29:20.595Z,99.90
2022-07-27T03:34:22.316Z,99.90
2022-07-27T03:39:24.062Z,99.90
2022-07-27T03:44:25.758Z,99.90
2022-07-27T03:49:27.572Z,99.90
2022-07-27T03:54:29.434Z,99.90
2022-07-27T03:59:31.214Z,99.90
2022-07-27T04:04:33.039Z,99.90
2022-07-27T04:09:36.062Z,99.90
2022-07-27T04:14:37.821Z,99.90
2022-07-27T04:19:39.510Z,99.90
2022-07-27T04:24:41.208Z,99.90
2022-07-27T04:29:42.922Z,99.90
2022-07-27T04:34:44.618Z,99.90
2022-07-27T04:39:46.368Z,99.90
2022-07-27T04:44:48.100Z,99.90
2022-07-27T04:49:49.962Z,99.90
2022-07-27T04:54:53.211Z,99.90
2022-07-27T04:59:55.041Z,99.90
2022-07-27T05:04:56.943Z,99.90
2022-07-27T05:09:58.637Z,99.90
2022-07-27T05:15:00.346Z,99.90
2022-07-27T05:20:02.665Z,99.90
2022-07-27T05:25:04.973Z,99.90
2022-07-27T05:30:07.795Z,99.90
2022-07-27T05:35:10.276Z,99.90
2022-07-27T05:40:12.917Z,99.90
2022-07-27T05:45:15.453Z,99.90
2022-07-27T05:50:17.278Z,99.90
2022-07-27T05:55:19.047Z,99.90
2022-07-27T06:00:20.911Z,99.90
2022-07-27T06:05:22.960Z,99.90
2022-07-27T06:10:26.515Z,99.90
2022-07-27T06:15:28.365Z,99.90
2022-07-27T06:20:31.079Z,99.90
2022-07-27T06:25:34.284Z,99.90
2022-07-27T06:30:37.452Z,99.90
2022-07-27T06:35:39.305Z,99.90
2022-07-27T06:40:41.040Z,99.90
2022-07-27T06:45:42.741Z,99.90
2022-07-27T06:50:44.653Z,99.90
2022-07-27T06:55:46.478Z,99.90
2022-07-27T07:00:48.227Z,99.90
2022-07-27T07:05:50.185Z,99.90
2022-07-27T07:10:52.369Z,99.90
2022-07-27T07:15:54.265Z,99.90
2022-07-27T07:20:56.077Z,99.90
2022-07-27T07:25:57.811Z,99.90
2022-07-27T07:31:00.462Z,99.90
2022-07-27T07:36:11.957Z,99.90
2022-07-27T07:41:14.834Z,99.90
2022-07-27T07:46:16.678Z,99.90
2022-07-27T07:51:18.524Z,99.90
2022-07-27T07:56:20.317Z,99.90
2022-07-27T08:01:24.457Z,99.90
2022-07-27T08:06:26.295Z,99.90
2022-07-27T08:11:28.257Z,99.90
2022-07-27T08:16:30.281Z,99.90
2022-07-27T08:21:34.773Z,99.90
2022-07-27T08:26:37.347Z,99.90
2022-07-27T08:31:53.038Z,99.90
2022-07-27T08:36:56.414Z,99.90
2022-07-27T08:42:00.841Z,99.90
2022-07-27T08:47:02.977Z,99.90
2022-07-27T08:52:05.470Z,99.90
2022-07-27T08:57:09.021Z,99.90
2022-07-27T09:02:13.495Z,99.90
2022-07-27T09:07:29.564Z,99.90
2022-07-27T09:12:34.055Z,99.90
2022-07-27T09:17:52.275Z,99.90
2022-07-27T09:22:56.142Z,99.90
2022-07-27T09:27:59.357Z,99.90
2022-07-27T09:33:04.315Z,99.90
2022-07-27T09:38:23.229Z,99.90
2022-07-27T09:44:20.199Z,99.90
2022-07-27T09:48:47.255Z,99.90
2022-07-27T09:53:49.852Z,99.90
2022-07-27T09:58:56.641Z,99.90
2022-07-27T10:04:01.686Z,99.90
2022-07-27T10:09:03.918Z,99.90
2022-07-27T10:14:05.689Z,99.90
2022-07-27T10:19:29.428Z,99.90
2022-07-27T10:24:37.297Z,99.90
2022-07-27T10:29:39.372Z,99.90
2022-07-27T10:34:43.315Z,99.90
2022-07-27T10:40:13.803Z,99.90
2022-07-27T10:45:17.450Z,99.90
2022-07-27T10:50:20.231Z,99.90
2022-07-27T10:55:31.228Z,99.90
2022-07-27T11:00:55.197Z,99.90
2022-07-27T11:06:21.907Z,99.90
2022-07-27T11:11:26.189Z,99.90
2022-07-27T11:16:30.465Z,99.90
2022-07-27T11:21:37.019Z,99.90
2022-07-27T11:26:42.067Z,99.90
2022-07-27T11:31:55.836Z,99.90
2022-07-27T11:37:02.022Z,99.90
2022-07-27T11:42:12.032Z,99.90
2022-07-27T11:47:18.451Z,99.90
2022-07-27T11:52:20.214Z,99.90
2022-07-27T11:57:32.013Z,99.90
2022-07-27T12:02:33.892Z,99.90
2022-07-27T12:07:36.950Z,99.90
2022-07-27T12:12:38.733Z,99.90
2022-07-27T12:17:42.731Z,99.90
2022-07-27T12:22:46.011Z,99.90
2022-07-27T12:28:08.843Z,99.90
2022-07-27T12:33:31.433Z,99.90
2022-07-27T12:38:48.694Z,99.90
2022-07-27T12:44:12.122Z,99.90
2022-07-27T12:49:17.287Z,99.90
2022-07-27T12:54:20.215Z,99.90
2022-07-27T12:59:23.450Z,99.90
2022-07-27T13:04:25.204Z,99.90
2022-07-27T13:10:03.142Z,99.90
2022-07-27T13:14:48.713Z,99.90
2022-07-27T13:19:51.926Z,99.90
2022-07-27T13:24:53.778Z,99.90
2022-07-27T13:29:55.998Z,99.90
2022-07-27T13:34:57.854Z,99.90
2022-07-27T13:39:59.879Z,99.90
2022-07-27T13:45:09.304Z,99.90
2022-07-27T13:50:18.255Z,99.60
2022-07-27T13:55:26.203Z,99.30
2022-07-27T14:00:29.853Z,97.20
2022-07-27T14:05:31.711Z,97.30
2022-07-27T14:10:44.415Z,96.90
2022-07-27T14:15:54.528Z,96.70
2022-07-27T14:20:59.590Z,94.70
2022-07-27T14:26:03.431Z,96.30
2022-07-27T14:31:08.065Z,95.60
2022-07-27T14:36:10.039Z,94.90
2022-07-27T14:41:11.915Z,94.10
2022-07-27T14:46:13.829Z,95.40
2022-07-27T14:51:15.759Z,95.00
2022-07-27T14:56:17.707Z,95.10
2022-07-27T15:01:19.485Z,95.80
2022-07-27T15:06:21.296Z,95.00
2022-07-27T15:11:23.058Z,94.40
2022-07-27T15:16:24.885Z,94.80
2022-07-27T15:21:27.440Z,94.20
2022-07-27T15:26:29.148Z,93.90
2022-07-27T15:31:30.940Z,93.90
2022-07-27T15:36:35.326Z,93.00
2022-07-27T15:41:39.676Z,90.80
2022-07-27T15:46:41.453Z,90.60
2022-07-27T15:51:43.283Z,90.20
2022-07-27T15:56:45.269Z,91.20
2022-07-27T16:01:47.287Z,91.10
2022-07-27T16:06:49.129Z,90.70
2022-07-27T16:11:50.837Z,90.70
2022-07-27T16:16:52.541Z,89.60
2022-07-27T16:21:56.010Z,90.00
2022-07-27T16:26:58.010Z,90.20
2022-07-27T16:31:59.852Z,88.90
2022-07-27T16:37:01.641Z,90.70
2022-07-27T16:42:03.680Z,89.60
2022-07-27T16:47:06.902Z,89.20
2022-07-27T16:52:09.528Z,90.30
2022-07-27T16:57:11.528Z,89.20
2022-07-27T17:02:13.342Z,88.70
2022-07-27T17:07:15.106Z,89.20
2022-07-27T17:12:17.616Z,87.90
2022-07-27T17:17:20.803Z,89.00
2022-07-27T17:22:22.501Z,88.40
2022-07-27T17:27:24.314Z,89.70
2022-07-27T17:32:26.000Z,88.80
2022-07-27T17:37:38.569Z,89.00
2022-07-27T17:42:49.555Z,88.60
2022-07-27T17:47:51.489Z,88.80
2022-07-27T17:52:56.376Z,87.80
2022-07-27T17:57:58.069Z,89.10
2022-07-27T18:03:00.166Z,90.20
2022-07-27T18:08:01.941Z,90.60
2022-07-27T18:13:05.027Z,90.70
2022-07-27T18:18:06.820Z,91.10
2022-07-27T18:23:08.755Z,91.60
2022-07-27T18:28:10.493Z,91.70
2022-07-27T18:33:13.381Z,92.20
2022-07-27T18:38:16.669Z,92.30
2022-07-27T18:43:18.675Z,92.70
2022-07-27T18:48:20.370Z,92.90
2022-07-27T18:53:22.390Z,93.30
2022-07-27T18:58:24.635Z,93.30
2022-07-27T19:03:27.957Z,93.70
2022-07-27T19:08:29.802Z,94.10
2022-07-27T19:13:31.564Z,94.30
2022-07-27T19:18:33.419Z,94.60
2022-07-27T19:23:35.184Z,95.10
2022-07-27T19:28:38.185Z,95.30
2022-07-27T19:33:40.418Z,95.70
2022-07-27T19:38:42.233Z,96.40
2022-07-27T19:43:44.206Z,96.20
2022-07-27T19:48:46.064Z,96.30
2022-07-27T19:53:49.283Z,97.30
2022-07-27T19:58:51.009Z,97.50
2022-07-27T20:03:54.785Z,97.90
2022-07-27T20:08:59.749Z,98.40
2022-07-27T20:14:04.759Z,98.50
2022-07-27T20:19:06.634Z,99.00
2022-07-27T20:24:09.161Z,98.90
2022-07-27T20:29:12.649Z,99.30
2022-07-27T20:34:14.779Z,99.50
2022-07-27T20:39:17.712Z,99.60
2022-07-27T20:44:21.035Z,99.90
2022-07-27T20:49:23.242Z,99.90
2022-07-27T20:54:29.123Z,99.90
2022-07-27T20:59:33.132Z,99.90
2022-07-27T21:04:35.444Z,99.90
2022-07-27T21:09:37.436Z,99.90
2022-07-27T21:14:42.888Z,99.90
2022-07-27T21:19:44.664Z,99.90
2022-07-27T21:24:46.441Z,99.90
2022-07-27T21:29:50.868Z,99.90
2022-07-27T21:34:52.617Z,99.90
2022-07-27T21:39:54.332Z,99.90
2022-07-27T21:44:56.025Z,99.90
2022-07-27T21:49:57.807Z,99.90
2022-07-27T21:54:59.895Z,99.90
2022-07-27T22:00:01.867Z,99.90
2022-07-27T22:05:04.014Z,99.90
2022-07-27T22:10:06.194Z,99.90
2022-07-27T22:15:08.539Z,99.90
2022-07-27T22:20:10.682Z,99.90
2022-07-27T22:25:12.675Z,99.90
2022-07-27T22:30:15.359Z,99.90
2022-07-27T22:35:17.313Z,99.90
2022-07-27T22:40:19.058Z,99.90
2022-07-27T22:45:20.878Z,99.90
2022-07-27T22:50:23.152Z,99.90
2022-07-27T22:55:25.057Z,99.90
2022-07-27T23:00:26.760Z,99.90
2022-07-27T23:05:28.628Z,99.90
2022-07-27T23:10:45.741Z,99.90
2022-07-27T23:15:47.866Z,99.90
2022-07-27T23:20:49.739Z,99.90
2022-07-27T23:25:51.647Z,99.90
2022-07-27T23:30:53.360Z,99.90
2022-07-27T23:35:55.044Z,99.90
2022-07-27T23:40:56.736Z,99.90
2022-07-27T23:45:58.471Z,99.90
2022-07-27T23:51:00.222Z,99.90
2022-07-27T23:56:02.193Z,99.90
